Time;durP1;ratioP1;P1;durP2;ratioP2;P2;SDS_P1;SDS_P2;PMS_P1;PMS_P2;Temp;Humidity;BMP_temperature;BMP_pressure;BME280_temperature;BME280_humidity;BME280_pressure;Samples;Min_cycle;Max_cycle;Signal;HPM_P1;HPM_P2
2022/02/08 00:02:52;;;;;;;7.87;2.73;;;8.20;97.80;;;;;;4936266;28;20458;-84
2022/02/08 00:05:44;;;;;;;4.83;1.90;;;8.30;97.80;;;;;;4940303;28;20457;-83
2022/02/08 00:08:36;;;;;;;7.90;2.37;;;8.60;97.70;;;;;;4867124;29;20480;-84
2022/02/08 00:11:11;;;;;;;7.63;2.43;;;8.50;97.30;;;;;;4879783;29;20523;-82
2022/02/08 00:14:00;;;;;;;9.20;2.30;;;8.40;97.80;;;;;;4865454;29;20535;-85
2022/02/08 00:16:35;;;;;;;10.37;2.47;;;8.70;97.70;;;;;;4879325;29;20890;-84
2022/02/08 00:19:16;;;;;;;4.33;2.23;;;8.80;97.20;;;;;;4867984;29;20471;-83
2022/02/08 00:21:53;;;;;;;7.20;3.57;;;8.60;97.30;;;;;;4881054;29;20510;-84
2022/02/08 00:24:33;;;;;;;9.37;2.27;;;8.50;98.00;;;;;;4878844;29;20945;-86
2022/02/08 00:27:22;;;;;;;5.30;2.27;;;8.40;98.40;;;;;;4884523;29;20480;-85
2022/02/08 00:29:53;;;;;;;10.00;2.57;;;8.50;98.30;;;;;;4881981;29;20475;-84
2022/02/08 00:32:22;;;;;;;13.47;2.70;;;8.40;98.70;;;;;;4878729;29;20464;-84
2022/02/08 00:35:06;;;;;;;6.63;2.40;;;8.30;99.10;;;;;;4894462;29;20459;-83
2022/02/08 00:37:54;;;;;;;6.27;2.40;;;8.20;99.90;;;;;;4887453;29;20550;-84
2022/02/08 00:40:37;;;;;;;9.40;2.87;;;8.10;99.90;;;;;;4893040;29;22896;-82
2022/02/08 00:43:08;;;;;;;9.90;2.93;;;8.10;99.90;;;;;;4883107;29;20530;-83
2022/02/08 00:46:45;;;;;;;5.20;2.77;;;8.10;99.90;;;;;;4917904;29;20468;-83
2022/02/08 00:48:48;;;;;;;5.73;2.57;;;8.10;99.90;;;;;;4949145;28;20491;-82
2022/02/08 00:51:37;;;;;;;;;;;;;;;;;;;;;
2022/02/08 00:54:12;;;;;;;7.20;2.47;;;8.10;99.90;;;;;;4958328;29;20504;-83
2022/02/08 00:56:46;;;;;;;8.73;2.70;;;8.10;99.90;;;;;;4965405;28;20467;-85
2022/02/08 00:59:38;;;;;;;8.90;2.97;;;8.30;99.90;;;;;;4966683;28;20481;-84
2022/02/08 01:02:34;;;;;;;6.63;2.97;;;8.20;99.90;;;;;;4962569;28;20476;-84
2022/02/08 01:05:08;;;;;;;10.67;4.70;;;8.10;99.90;;;;;;4968182;28;20508;-84
2022/02/08 01:08:03;;;;;;;9.27;2.97;;;8.20;99.90;;;;;;4967338;28;20476;-84
2022/02/08 01:10:38;;;;;;;10.10;2.40;;;8.10;99.90;;;;;;4965805;28;20504;-84
2022/02/08 01:13:18;;;;;;;5.50;1.77;;;8.10;99.90;;;;;;4950397;29;20460;-86
2022/02/08 01:15:50;;;;;;;3.70;1.50;;;8.40;99.90;;;;;;4966067;28;20531;-85
2022/02/08 01:18:39;;;;;;;6.03;1.67;;;8.30;99.90;;;;;;4950712;28;20527;-85
2022/02/08 01:21:09;;;;;;;4.10;2.33;;;8.30;99.90;;;;;;4966414;28;20893;-84
2022/02/08 01:23:53;;;;;;;4.80;2.03;;;8.40;99.90;;;;;;4952437;29;20465;-85
2022/02/08 01:26:47;;;;;;;3.57;1.70;;;8.30;99.90;;;;;;4939244;28;20523;-83
2022/02/08 01:29:39;;;;;;;3.63;1.47;;;8.20;99.90;;;;;;4948495;29;20500;-83
2022/02/08 01:38:08;;;;;;;6.97;2.00;;;8.60;99.90;;;;;;4958516;28;20496;-85
2022/02/08 01:41:10;;;;;;;5.33;1.67;;;8.60;99.90;;;;;;4953606;29;20480;-83
2022/02/08 01:44:12;;;;;;;3.30;1.40;;;8.50;99.90;;;;;;4967663;28;20495;-84
2022/02/08 01:49:33;;;;;;;5.63;1.40;;;8.50;99.90;;;;;;4949631;29;20555;-84
2022/02/08 01:52:06;;;;;;;2.33;1.53;;;8.50;99.90;;;;;;4959294;28;20453;-83
2022/02/08 01:54:34;;;;;;;2.97;1.23;;;8.90;99.90;;;;;;4959989;28;20464;-84
2022/02/08 01:57:08;;;;;;;6.37;1.37;;;9.10;99.90;;;;;;4964730;28;20449;-84
2022/02/08 01:59:41;;;;;;;6.47;1.20;;;9.00;99.90;;;;;;4969603;28;20489;-84
2022/02/08 02:02:11;;;;;;;4.83;1.70;;;8.90;99.90;;;;;;4982909;28;20467;-85
2022/02/08 02:04:49;;;;;;;5.00;1.30;;;9.10;99.90;;;;;;4970629;28;20457;-84
2022/02/08 02:07:22;;;;;;;3.80;1.30;;;8.90;99.90;;;;;;4971717;28;20483;-84
2022/02/08 02:09:50;;;;;;;3.70;1.37;;;8.90;99.90;;;;;;4975327;28;20555;-84
2022/02/08 02:12:26;;;;;;;4.33;1.70;;;8.90;99.90;;;;;;4975343;28;20445;-86
2022/02/08 02:15:03;;;;;;;2.97;1.57;;;8.90;99.90;;;;;;4981020;28;20461;-84
2022/02/08 02:17:33;;;;;;;2.77;1.30;;;8.90;99.90;;;;;;4979226;28;20492;-84
2022/02/08 02:20:07;;;;;;;4.97;1.80;;;8.80;99.90;;;;;;4959164;28;20484;-83
2022/02/08 02:22:40;;;;;;;5.93;2.07;;;8.90;99.90;;;;;;4949712;28;20467;-84
2022/02/08 02:25:41;;;;;;;7.23;2.60;;;8.80;99.90;;;;;;4947312;29;20456;-82
2022/02/08 02:28:11;;;;;;;3.10;1.70;;;8.90;99.90;;;;;;4942245;28;20499;-82
2022/02/08 02:30:44;;;;;;;3.83;1.67;;;8.80;99.90;;;;;;4950107;29;20506;-82
2022/02/08 02:33:20;;;;;;;4.70;1.70;;;8.70;99.90;;;;;;4975581;28;20465;-84
2022/02/08 02:35:56;;;;;;;3.00;1.80;;;8.80;99.90;;;;;;4973432;28;20970;-83
2022/02/08 02:38:24;;;;;;;6.93;1.63;;;8.70;99.90;;;;;;4952154;28;20535;-83
2022/02/08 02:41:07;;;;;;;3.87;1.47;;;8.60;99.90;;;;;;4946890;28;20512;-83
2022/02/08 02:43:35;;;;;;;4.57;1.87;;;8.70;99.90;;;;;;4952900;28;20456;-83
2022/02/08 02:46:07;;;;;;;3.87;1.60;;;8.70;99.90;;;;;;4948091;28;20516;-82
2022/02/08 02:48:37;;;;;;;4.50;1.60;;;8.60;99.90;;;;;;4956975;29;20485;-84
2022/02/08 02:51:13;;;;;;;7.33;1.67;;;8.60;99.90;;;;;;4959003;29;20500;-82
2022/02/08 02:53:54;;;;;;;6.60;1.70;;;8.60;99.90;;;;;;4965820;29;20945;-84
2022/02/08 02:56:21;;;;;;;3.77;1.73;;;8.60;99.90;;;;;;4963064;28;20515;-82
2022/02/08 02:58:51;;;;;;;4.43;1.60;;;8.70;99.90;;;;;;4957693;28;20473;-81
2022/02/08 03:01:33;;;;;;;6.50;1.87;;;8.60;99.90;;;;;;4971626;28;20476;-83
2022/02/08 03:20:54;;;;;;;4.40;1.60;;;8.50;99.90;;;;;;4963162;28;20500;-84
2022/02/08 03:23:28;;;;;;;2.23;1.63;;;8.50;99.90;;;;;;4961658;29;20524;-83
2022/02/08 03:25:55;;;;;;;5.10;1.57;;;8.70;99.90;;;;;;4961606;29;20452;-85
2022/02/08 03:28:29;;;;;;;4.13;1.80;;;8.70;99.90;;;;;;4957500;29;20484;-81
2022/02/08 03:31:07;;;;;;;3.50;2.10;;;8.70;99.90;;;;;;4975397;28;20478;-85
2022/02/08 03:33:45;;;;;;;4.00;1.50;;;8.80;99.90;;;;;;4977075;28;20477;-85
2022/02/08 03:36:13;;;;;;;5.10;1.73;;;8.70;99.90;;;;;;4959162;28;20910;-85
2022/02/08 03:38:59;;;;;;;3.60;1.40;;;8.70;99.90;;;;;;4945730;29;20525;-84
2022/02/08 03:41:36;;;;;;;3.27;1.37;;;8.70;99.90;;;;;;4944431;29;20483;-84
2022/02/08 03:44:14;;;;;;;2.80;1.70;;;8.50;99.90;;;;;;4962500;28;20480;-81
2022/02/08 03:46:46;;;;;;;2.07;1.30;;;8.70;99.90;;;;;;4953850;28;20532;-84
2022/02/08 03:49:17;;;;;;;4.30;1.80;;;8.70;99.90;;;;;;4959412;28;20565;-84
2022/02/08 03:51:57;;;;;;;5.37;1.53;;;8.80;99.90;;;;;;4970542;28;20469;-84
2022/02/08 03:54:29;;;;;;;4.23;1.30;;;8.90;99.90;;;;;;4974829;28;20461;-83
2022/02/08 03:56:59;;;;;;;3.70;1.60;;;9.00;99.90;;;;;;4961654;28;20492;-82
2022/02/08 03:59:29;;;;;;;2.80;1.50;;;9.00;99.90;;;;;;4961778;28;20982;-84
2022/02/08 04:07:19;;;;;;;3.47;1.10;;;8.90;99.90;;;;;;4958741;28;20453;-83
2022/02/08 04:09:59;;;;;;;4.80;1.57;;;8.80;99.90;;;;;;4954730;29;20560;-83
2022/02/08 04:12:52;;;;;;;1.67;1.23;;;8.90;99.90;;;;;;4956884;29;20468;-83
2022/02/08 04:33:29;;;;;;;;;;;;;;;;;;;;;
2022/02/08 04:41:41;;;;;;;4.67;2.57;;;8.60;99.90;;;;;;4942719;29;20455;-82
2022/02/08 04:47:33;;;;;;;3.57;2.70;;;8.90;99.90;;;;;;4943039;29;21195;-83
2022/02/08 04:50:27;;;;;;;5.43;2.60;;;9.10;99.90;;;;;;4952775;28;20862;-82
2022/02/08 04:52:59;;;;;;;5.43;2.50;;;9.10;99.90;;;;;;4956068;28;20462;-84
2022/02/08 04:55:39;;;;;;;3.20;1.90;;;9.00;99.90;;;;;;4950157;28;20520;-85
2022/02/08 04:58:45;;;;;;;2.70;2.50;;;9.00;99.90;;;;;;4963532;28;20452;-85
2022/02/08 05:01:37;;;;;;;4.93;2.30;;;9.20;99.90;;;;;;4950686;28;20527;-85
2022/02/08 05:41:55;;;;;;;5.00;2.47;;;9.00;99.90;;;;;;4958488;29;20456;-85
2022/02/08 05:44:33;;;;;;;5.30;2.40;;;8.90;99.90;;;;;;4955301;29;20476;-83
2022/02/08 05:47:00;;;;;;;2.80;2.33;;;8.90;99.90;;;;;;4951089;28;20536;-83
2022/02/08 05:54:42;;;;;;;4.60;2.67;;;8.90;99.90;;;;;;4944894;28;20460;-83
2022/02/08 05:57:10;;;;;;;1.93;1.83;;;8.90;99.90;;;;;;4949626;28;20469;-82
2022/02/08 05:59:37;;;;;;;2.77;2.00;;;8.90;99.90;;;;;;4944441;29;20568;-84
2022/02/08 06:02:05;;;;;;;3.00;2.20;;;8.90;99.90;;;;;;4953647;29;20587;-82
2022/02/08 06:04:38;;;;;;;5.70;2.73;;;9.00;99.90;;;;;;4980743;28;20465;-82
2022/02/08 06:07:05;;;;;;;2.63;2.43;;;8.90;99.90;;;;;;4969756;28;20452;-85
2022/02/08 06:09:33;;;;;;;3.60;3.30;;;8.90;99.90;;;;;;4967601;28;20480;-83
2022/02/08 06:12:00;;;;;;;2.10;2.00;;;8.90;99.90;;;;;;4952254;29;20489;-84
2022/02/08 06:14:29;;;;;;;2.10;1.60;;;9.00;99.90;;;;;;4971294;28;20567;-85
2022/02/08 06:16:56;;;;;;;1.93;1.83;;;9.00;99.90;;;;;;4981631;28;20526;-83
2022/02/08 06:19:23;;;;;;;2.57;1.50;;;9.00;99.90;;;;;;4970011;28;20592;-84
2022/02/08 06:21:50;;;;;;;2.30;1.77;;;9.00;99.90;;;;;;4969941;28;20481;-81
2022/02/08 06:24:17;;;;;;;2.30;1.90;;;9.00;99.90;;;;;;4979784;28;21017;-83
2022/02/08 06:26:44;;;;;;;2.67;2.50;;;9.10;99.90;;;;;;4985187;28;20460;-85
2022/02/08 06:29:14;;;;;;;2.13;1.90;;;9.10;99.90;;;;;;4971542;28;20898;-82
2022/02/08 06:31:44;;;;;;;2.23;2.03;;;9.00;99.90;;;;;;4972268;28;20450;-83
2022/02/08 06:34:17;;;;;;;1.73;1.60;;;9.10;99.90;;;;;;4964591;28;20466;-83
2022/02/08 06:36:44;;;;;;;2.33;2.13;;;9.00;99.90;;;;;;4959024;28;20458;-84
2022/02/08 06:39:11;;;;;;;2.30;2.10;;;9.00;99.90;;;;;;4957483;29;20473;-85
2022/02/08 06:41:38;;;;;;;2.50;1.57;;;9.10;99.90;;;;;;4959474;28;20481;-85
2022/02/08 06:44:05;;;;;;;3.17;2.03;;;9.00;99.90;;;;;;4973594;28;20540;-85
2022/02/08 06:46:32;;;;;;;3.43;2.20;;;9.00;99.90;;;;;;4961164;28;20833;-84
2022/02/08 06:48:59;;;;;;;3.07;2.10;;;9.00;99.90;;;;;;4956800;28;20527;-83
2022/02/08 06:51:25;;;;;;;1.80;1.70;;;9.00;99.90;;;;;;4969707;28;20925;-84
2022/02/08 06:53:52;;;;;;;1.70;1.60;;;9.00;99.90;;;;;;4951084;29;20458;-85
2022/02/08 06:56:20;;;;;;;2.10;1.80;;;9.00;99.90;;;;;;4942722;29;20532;-83
2022/02/08 06:58:52;;;;;;;1.67;1.57;;;9.00;99.90;;;;;;4941992;29;20461;-83
2022/02/08 07:01:25;;;;;;;1.50;1.40;;;9.00;99.90;;;;;;4958410;28;20531;-85
2022/02/08 07:03:53;;;;;;;2.30;1.87;;;9.00;99.90;;;;;;4958412;29;20452;-86
2022/02/08 07:06:21;;;;;;;1.67;1.57;;;9.00;99.90;;;;;;4965282;28;20492;-85
2022/02/08 07:08:50;;;;;;;2.60;1.60;;;9.00;99.90;;;;;;4968924;28;20470;-84
2022/02/08 07:11:18;;;;;;;1.63;1.53;;;9.00;99.90;;;;;;4956978;28;20486;-84
2022/02/08 07:13:45;;;;;;;1.60;1.50;;;9.00;99.90;;;;;;4959240;28;20536;-86
2022/02/08 07:16:12;;;;;;;3.87;1.80;;;9.10;99.90;;;;;;4958186;28;20555;-85
2022/02/08 07:18:39;;;;;;;1.67;1.10;;;9.20;99.90;;;;;;4971078;28;20456;-85
2022/02/08 07:21:07;;;;;;;11.47;8.20;;;9.10;99.90;;;;;;4961374;29;20510;-85
2022/02/08 07:23:35;;;;;;;1.60;1.50;;;9.20;99.90;;;;;;4952327;28;21028;-84
2022/02/08 07:26:02;;;;;;;2.00;1.83;;;9.20;99.90;;;;;;4973380;28;20462;-85
2022/02/08 07:28:29;;;;;;;2.70;2.50;;;9.20;99.90;;;;;;4975797;28;20488;-84
2022/02/08 07:31:05;;;;;;;2.73;2.47;;;9.20;99.90;;;;;;4974634;28;20500;-83
2022/02/08 07:33:33;;;;;;;2.80;2.37;;;9.30;99.90;;;;;;4961887;29;20461;-83
2022/02/08 07:36:09;;;;;;;2.90;2.67;;;9.30;99.90;;;;;;4971201;28;20474;-85
2022/02/08 07:38:39;;;;;;;3.27;2.50;;;9.20;99.90;;;;;;4957649;29;20483;-84
2022/02/08 07:43:32;;;;;;;4.20;3.10;;;9.30;99.90;;;;;;4963452;28;20524;-83
2022/02/08 07:46:00;;;;;;;3.83;3.43;;;9.30;99.90;;;;;;4962795;28;20457;-84
2022/02/08 07:48:29;;;;;;;5.07;2.97;;;9.30;99.90;;;;;;4963067;28;20554;-84
2022/02/08 07:50:57;;;;;;;3.90;2.90;;;9.30;99.90;;;;;;4958857;28;20490;-83
2022/02/08 07:53:27;;;;;;;4.00;3.50;;;9.30;99.90;;;;;;4949978;29;20468;-84
2022/02/08 07:55:56;;;;;;;2.50;2.30;;;9.30;99.90;;;;;;4949761;29;20503;-85
2022/02/08 07:58:24;;;;;;;6.13;2.90;;;9.30;99.90;;;;;;4946410;28;20471;-82
2022/02/08 08:00:52;;;;;;;2.70;2.50;;;9.30;99.90;;;;;;4939004;28;20477;-82
2022/02/08 08:03:19;;;;;;;3.30;2.10;;;9.30;99.90;;;;;;4914977;29;20481;-84
2022/02/08 08:05:46;;;;;;;2.90;2.70;;;9.30;99.90;;;;;;4961447;28;20468;-85
2022/02/08 08:08:14;;;;;;;3.20;2.90;;;9.40;99.90;;;;;;4959344;28;20469;-84
2022/02/08 08:10:46;;;;;;;4.77;3.20;;;9.40;99.90;;;;;;4961927;29;20481;-84
2022/02/08 08:13:17;;;;;;;4.90;3.10;;;9.50;99.90;;;;;;4965110;28;20472;-84
2022/02/08 08:15:52;;;;;;;5.13;3.80;;;9.50;99.90;;;;;;4961282;28;20460;-84
2022/02/08 08:18:55;;;;;;;5.17;3.90;;;9.50;99.90;;;;;;4963646;28;20464;-85
2022/02/08 08:21:09;;;;;;;4.30;3.50;;;9.80;99.90;;;;;;4958483;28;20908;-85
2022/02/08 08:23:35;;;;;;;5.00;3.60;;;9.60;99.90;;;;;;4951037;28;21360;-84
2022/02/08 08:26:02;;;;;;;4.30;3.27;;;9.60;99.90;;;;;;4974328;28;20506;-85
2022/02/08 08:28:29;;;;;;;6.17;3.90;;;9.60;99.90;;;;;;4967715;28;20972;-85
2022/02/08 08:30:56;;;;;;;5.50;3.20;;;9.60;99.90;;;;;;4959634;28;20485;-84
2022/02/08 08:33:24;;;;;;;3.17;2.87;;;9.50;99.90;;;;;;4972008;28;20461;-84
2022/02/08 08:36:03;;;;;;;3.47;3.17;;;9.50;99.90;;;;;;4953680;28;20862;-84
2022/02/08 08:38:32;;;;;;;5.07;3.30;;;9.50;99.90;;;;;;4977493;28;20460;-84
2022/02/08 08:41:27;;;;;;;4.40;3.37;;;9.50;99.90;;;;;;4977433;28;20491;-84
2022/02/08 08:51:49;;;;;;;3.97;3.47;;;10.00;99.90;;;;;;4960992;29;20464;-85
2022/02/08 08:54:17;;;;;;;3.37;2.70;;;9.90;99.90;;;;;;4969759;28;20577;-86
2022/02/08 08:56:45;;;;;;;3.17;2.50;;;9.80;99.90;;;;;;4945945;29;20472;-84
2022/02/08 08:59:14;;;;;;;6.87;3.40;;;9.90;99.90;;;;;;4945458;29;20551;-85
2022/02/08 09:01:42;;;;;;;7.73;2.73;;;10.00;99.90;;;;;;4941939;28;20529;-83
2022/02/08 09:04:10;;;;;;;3.87;2.33;;;9.90;99.90;;;;;;4950858;29;20469;-84
2022/02/08 09:06:38;;;;;;;3.37;2.90;;;9.80;99.90;;;;;;4966189;28;20457;-84
2022/02/08 09:09:12;;;;;;;6.30;4.43;;;9.80;99.90;;;;;;4960130;28;20578;-85
2022/02/08 09:14:13;;;;;;;3.40;3.10;;;9.80;99.90;;;;;;4962702;28;20450;-85
2022/02/08 09:30:12;;;;;;;4.40;2.63;;;10.00;99.90;;;;;;4958207;28;20580;-84
2022/02/08 09:32:43;;;;;;;4.90;3.13;;;10.00;99.90;;;;;;4959640;28;20457;-83
2022/02/08 09:35:12;;;;;;;3.83;2.53;;;10.00;99.90;;;;;;4972396;28;20533;-84
2022/02/08 09:37:40;;;;;;;4.63;2.60;;;10.00;99.90;;;;;;4967965;28;20477;-84
2022/02/08 09:40:09;;;;;;;3.67;2.60;;;10.10;99.90;;;;;;4969341;28;20499;-83
2022/02/08 09:42:41;;;;;;;6.73;2.80;;;10.10;99.90;;;;;;4959740;29;20453;-84
2022/02/08 09:45:17;;;;;;;5.20;2.80;;;10.10;99.90;;;;;;4973688;28;20500;-83
2022/02/08 09:50:39;;;;;;;4.63;2.60;;;10.30;99.90;;;;;;4952544;28;20489;-83
2022/02/08 09:53:12;;;;;;;3.57;2.70;;;10.30;99.90;;;;;;4961613;29;20512;-83
2022/02/08 09:55:41;;;;;;;4.23;2.90;;;10.30;99.90;;;;;;4980605;28;21004;-85
2022/02/08 09:58:09;;;;;;;3.47;2.87;;;10.30;99.90;;;;;;4961454;29;20462;-84
2022/02/08 10:00:38;;;;;;;2.80;2.60;;;10.30;99.90;;;;;;4983534;28;20487;-85
2022/02/08 10:03:07;;;;;;;5.60;3.10;;;10.40;99.90;;;;;;4976745;28;20469;-84
2022/02/08 10:05:42;;;;;;;4.67;2.40;;;10.50;99.90;;;;;;4941942;29;20470;-84
2022/02/08 10:08:12;;;;;;;2.00;1.90;;;10.50;99.90;;;;;;4944853;28;20456;-83
2022/02/08 10:10:39;;;;;;;7.23;2.50;;;10.60;99.90;;;;;;4961644;28;20503;-85
2022/02/08 10:19:35;;;;;;;4.40;2.97;;;11.00;99.90;;;;;;4955440;28;20496;-84
2022/02/08 10:21:46;;;;;;;3.60;2.40;;;10.70;99.90;;;;;;4958915;28;20894;-85
2022/02/08 10:24:16;;;;;;;5.53;2.90;;;10.80;99.90;;;;;;4957961;28;21001;-84
2022/02/08 10:40:06;;;;;;;3.60;2.40;;;11.10;99.90;;;;;;4948436;29;20488;-83
2022/02/08 10:42:34;;;;;;;2.00;1.80;;;11.30;99.90;;;;;;4949692;29;20456;-83
2022/02/08 10:45:04;;;;;;;4.47;2.27;;;11.20;99.90;;;;;;4948492;29;20547;-82
2022/02/08 10:47:39;;;;;;;3.00;2.70;;;11.40;99.90;;;;;;4965846;28;20987;-84
2022/02/08 10:50:09;;;;;;;3.03;2.23;;;11.20;99.90;;;;;;4966949;28;20540;-83
2022/02/08 10:52:39;;;;;;;2.23;1.70;;;11.50;99.90;;;;;;4956907;28;20445;-82
2022/02/08 10:55:17;;;;;;;3.43;1.83;;;11.10;99.90;;;;;;4946412;28;20469;-84
2022/02/08 10:58:13;;;;;;;7.60;2.40;;;11.00;99.90;;;;;;4957088;28;20460;-82
2022/02/08 11:00:38;;;;;;;2.63;1.80;;;11.10;99.90;;;;;;4956263;28;20616;-84
2022/02/08 11:03:12;;;;;;;2.10;2.00;;;11.10;99.90;;;;;;4950452;29;20487;-84
2022/02/08 11:06:02;;;;;;;3.17;1.80;;;11.30;99.90;;;;;;4956418;29;20457;-84
2022/02/08 11:09:06;;;;;;;2.73;1.50;;;11.20;99.90;;;;;;4957735;28;20469;-84
2022/02/08 11:12:28;;;;;;;2.73;2.00;;;11.40;99.90;;;;;;4955471;28;20519;-84
2022/02/08 11:14:39;;;;;;;1.97;1.40;;;11.50;99.90;;;;;;4948330;28;20468;-85
2022/02/08 11:25:08;;;;;;;2.40;1.60;;;11.30;99.90;;;;;;4961770;28;20481;-83
2022/02/08 11:27:38;;;;;;;3.70;1.60;;;11.20;99.90;;;;;;4966911;28;20460;-83
2022/02/08 11:30:13;;;;;;;4.57;1.77;;;11.60;99.90;;;;;;4948122;28;20806;-85
2022/02/08 11:44:33;;;;;;;2.67;1.40;;;11.30;99.90;;;;;;4954606;29;20488;-82
2022/02/08 11:49:34;;;;;;;2.20;1.63;;;11.80;99.90;;;;;;4969750;28;20457;-84
2022/02/08 11:53:07;;;;;;;2.50;1.70;;;11.60;99.90;;;;;;4982908;28;20523;-86
2022/02/08 12:05:21;;;;;;;3.03;1.43;;;11.20;99.90;;;;;;4941728;29;20461;-83
2022/02/08 12:07:52;;;;;;;3.20;1.80;;;11.30;99.90;;;;;;4939176;29;20483;-83
2022/02/08 12:10:42;;;;;;;4.40;1.67;;;11.60;99.90;;;;;;4939631;28;20849;-84
2022/02/08 12:32:57;;;;;;;3.17;1.23;;;11.60;99.90;;;;;;4950569;29;20560;-83
2022/02/08 13:02:49;;;;;;;4.47;1.90;;;11.60;99.90;;;;;;4954399;28;20473;-84
2022/02/08 14:06:30;;;;;;;3.23;1.40;;;11.90;99.90;;;;;;4952060;29;20460;-85
2022/02/08 14:09:14;;;;;;;4.20;2.20;;;12.10;99.90;;;;;;4959812;28;20461;-84
2022/02/08 14:13:03;;;;;;;3.47;1.40;;;12.10;99.90;;;;;;4942037;29;20612;-84
2022/02/08 14:15:29;;;;;;;5.07;1.20;;;12.00;99.90;;;;;;4950256;29;20447;-85
2022/02/08 14:20:27;;;;;;;5.97;2.03;;;12.00;99.90;;;;;;4954638;29;20477;-83
2022/02/08 14:23:24;;;;;;;4.37;1.87;;;12.00;99.90;;;;;;4953642;29;20465;-84
2022/02/08 14:31:53;;;;;;;3.70;2.00;;;12.10;99.90;;;;;;4941537;28;20486;-84
2022/02/08 14:48:50;;;;;;;2.40;1.70;;;12.10;99.90;;;;;;4953072;29;20465;-83
2022/02/08 15:10:35;;;;;;;2.13;1.20;;;12.10;99.90;;;;;;4954655;29;20548;-86
2022/02/08 15:13:03;;;;;;;1.37;0.80;;;12.10;99.90;;;;;;4956506;29;20488;-83
2022/02/08 15:18:38;;;;;;;1.70;1.07;;;12.00;99.90;;;;;;4953925;29;20461;-82
2022/02/08 15:21:09;;;;;;;1.10;1.00;;;11.90;99.90;;;;;;4967532;28;20492;-83
2022/02/08 15:23:36;;;;;;;3.03;0.93;;;11.90;99.90;;;;;;4978001;28;20905;-82
2022/02/08 15:26:05;;;;;;;3.50;1.03;;;11.80;99.90;;;;;;4970762;28;21085;-83
2022/02/08 15:28:33;;;;;;;1.30;1.03;;;11.80;99.90;;;;;;4967105;28;20507;-83
2022/02/08 15:31:03;;;;;;;1.37;1.17;;;11.80;99.90;;;;;;4968563;28;20526;-83
2022/02/08 15:33:31;;;;;;;0.90;0.80;;;11.70;99.90;;;;;;4957014;29;20506;-84
2022/02/08 15:36:15;;;;;;;1.40;1.10;;;11.70;99.90;;;;;;4936911;29;20869;-83
2022/02/08 15:38:50;;;;;;;1.20;1.10;;;11.70;99.90;;;;;;4962315;28;20496;-84
2022/02/08 15:41:17;;;;;;;1.47;0.83;;;11.70;99.90;;;;;;4948343;29;20552;-84
2022/02/08 15:43:45;;;;;;;1.10;1.00;;;11.60;99.90;;;;;;4965331;28;20475;-84
2022/02/08 15:46:21;;;;;;;1.33;1.23;;;11.70;99.90;;;;;;4947116;28;20572;-85
2022/02/08 15:48:50;;;;;;;2.57;1.00;;;11.70;99.90;;;;;;4950570;29;20457;-85
2022/02/08 15:51:29;;;;;;;1.20;1.10;;;11.60;99.90;;;;;;4948774;29;20501;-83
2022/02/08 15:54:13;;;;;;;1.83;1.73;;;11.60;99.90;;;;;;4953673;29;20845;-84
2022/02/08 16:07:31;;;;;;;2.10;1.33;;;11.50;99.90;;;;;;4948767;29;20461;-82
2022/02/08 16:10:05;;;;;;;1.57;1.40;;;11.50;99.90;;;;;;4948541;29;20516;-84
2022/02/08 16:13:11;;;;;;;2.33;1.40;;;11.50;99.90;;;;;;4951344;29;20481;-84
2022/02/08 16:15:53;;;;;;;1.40;1.30;;;11.60;99.90;;;;;;4950638;29;20459;-83
2022/02/08 16:19:11;;;;;;;1.33;1.23;;;11.60;99.90;;;;;;4948825;28;20457;-85
2022/02/08 16:26:33;;;;;;;1.77;1.60;;;11.50;99.90;;;;;;4952583;29;20488;-83
2022/02/08 16:46:05;;;;;;;1.60;1.50;;;11.90;99.90;;;;;;4962007;28;20441;-81
2022/02/08 16:55:54;;;;;;;2.43;2.13;;;12.40;99.90;;;;;;4958001;28;20449;-80
2022/02/08 17:01:11;;;;;;;4.70;2.20;;;12.30;99.90;;;;;;4961266;28;20552;-82
2022/02/08 17:03:45;;;;;;;2.37;1.77;;;12.10;99.90;;;;;;4967773;29;20437;-84
2022/02/08 17:06:17;;;;;;;1.83;1.73;;;11.80;99.90;;;;;;4969946;28;20477;-83
2022/02/08 17:08:46;;;;;;;1.50;1.40;;;11.90;99.90;;;;;;4969235;28;20464;-86
2022/02/08 17:11:22;;;;;;;2.30;1.80;;;12.00;99.90;;;;;;4958800;29;20536;-84
2022/02/08 17:16:53;;;;;;;2.40;2.20;;;11.90;99.90;;;;;;4932107;28;20472;-84
2022/02/08 17:46:41;;;;;;;2.60;1.53;;;11.60;99.90;;;;;;4967541;28;21063;-83
2022/02/08 17:49:08;;;;;;;2.90;1.67;;;11.50;99.90;;;;;;4970089;28;20836;-84
2022/02/08 17:51:35;;;;;;;1.80;1.60;;;11.50;99.90;;;;;;4991077;28;20481;-85
2022/02/08 17:54:12;;;;;;;2.87;1.90;;;11.50;99.90;;;;;;4986116;28;20464;-84
2022/02/08 17:56:39;;;;;;;4.33;3.33;;;11.50;99.90;;;;;;4967064;28;20457;-84
2022/02/08 17:59:07;;;;;;;2.57;2.33;;;11.50;99.90;;;;;;4984409;28;20465;-84
2022/02/08 18:01:34;;;;;;;3.50;1.70;;;11.50;99.90;;;;;;4949323;28;20457;-84
2022/02/08 18:04:01;;;;;;;2.97;2.13;;;11.50;99.90;;;;;;4939831;29;20466;-84
2022/02/08 18:06:28;;;;;;;1.77;1.67;;;11.40;99.90;;;;;;4955911;28;20794;-84
2022/02/08 18:08:55;;;;;;;3.30;1.90;;;11.40;99.90;;;;;;4940559;29;20488;-85
2022/02/08 18:11:29;;;;;;;2.90;1.67;;;11.40;99.90;;;;;;4956044;28;20497;-85
2022/02/08 18:13:56;;;;;;;2.40;2.00;;;11.40;99.90;;;;;;4958063;28;20529;-83
2022/02/08 18:16:24;;;;;;;5.83;2.30;;;11.40;99.90;;;;;;4955769;28;20484;-84
2022/02/08 18:18:52;;;;;;;3.73;2.87;;;11.50;99.90;;;;;;4963881;28;20490;-84
2022/02/08 18:21:43;;;;;;;4.30;2.90;;;11.60;99.90;;;;;;4972717;23;20503;-84
2022/02/08 18:24:51;;;;;;;3.27;2.50;;;11.60;99.90;;;;;;4936076;29;20469;-84
2022/02/08 19:07:39;;;;;;;3.30;3.00;;;11.40;99.90;;;;;;4918488;29;20473;-83
2022/02/08 19:13:27;;;;;;;2.90;2.60;;;11.50;99.90;;;;;;4917455;29;20518;-84
2022/02/08 19:19:05;;;;;;;5.83;3.70;;;11.90;99.90;;;;;;4915442;29;20810;-83
2022/02/08 19:21:41;;;;;;;3.40;2.63;;;11.90;99.90;;;;;;4925362;29;20474;-84
2022/02/08 19:24:08;;;;;;;3.37;3.03;;;11.70;99.90;;;;;;4917500;29;20462;-84
2022/02/08 19:26:35;;;;;;;2.97;2.77;;;11.60;99.90;;;;;;4912064;29;20459;-85
2022/02/08 19:29:02;;;;;;;2.43;2.23;;;11.70;99.90;;;;;;4902776;29;20466;-83
2022/02/08 19:31:29;;;;;;;3.60;2.67;;;11.90;99.90;;;;;;4906513;29;21063;-83
2022/02/08 19:33:56;;;;;;;5.83;2.70;;;11.70;99.90;;;;;;4904309;29;20710;-84
2022/02/08 19:36:23;;;;;;;2.90;2.70;;;11.50;99.90;;;;;;4907065;29;20457;-84
2022/02/08 19:38:50;;;;;;;4.40;2.67;;;11.50;99.90;;;;;;4919985;29;20469;-84
2022/02/08 19:41:20;;;;;;;3.23;2.77;;;11.60;99.90;;;;;;4921451;29;20483;-84
2022/02/08 19:43:48;;;;;;;2.60;2.37;;;11.50;99.90;;;;;;4922282;29;20459;-84
2022/02/08 19:46:16;;;;;;;7.43;2.67;;;11.60;99.90;;;;;;4922563;29;21047;-84
2022/02/08 19:48:43;;;;;;;2.17;1.97;;;11.50;99.90;;;;;;4924107;29;20473;-85
2022/02/08 19:51:11;;;;;;;5.37;2.30;;;11.50;99.90;;;;;;4923398;29;20479;-83
2022/02/08 19:53:37;;;;;;;3.10;2.30;;;11.40;99.90;;;;;;4935153;29;20497;-83
2022/02/08 19:56:23;;;;;;;2.40;2.00;;;11.40;99.90;;;;;;4931278;29;20474;-82
2022/02/08 19:58:54;;;;;;;3.27;2.20;;;11.40;99.90;;;;;;4918026;29;20494;-83
2022/02/08 20:01:29;;;;;;;3.93;2.00;;;11.30;99.90;;;;;;4920989;29;20469;-83
2022/02/08 20:04:04;;;;;;;3.57;2.33;;;11.30;99.90;;;;;;4914142;29;20477;-84
2022/02/08 20:06:36;;;;;;;1.73;1.60;;;11.30;99.90;;;;;;4919047;29;20462;-82
2022/02/08 20:09:06;;;;;;;3.70;2.57;;;11.30;99.90;;;;;;4918136;29;20467;-82
2022/02/08 20:11:37;;;;;;;2.60;1.73;;;11.30;99.90;;;;;;4919259;29;20469;-84
2022/02/08 20:14:07;;;;;;;3.93;1.97;;;11.30;99.90;;;;;;4927714;29;20513;-84
2022/02/08 20:16:35;;;;;;;2.80;1.93;;;11.30;99.90;;;;;;4916747;29;20458;-84
2022/02/08 20:19:05;;;;;;;5.20;2.10;;;11.30;99.90;;;;;;4922927;29;20462;-83
2022/02/08 20:21:33;;;;;;;4.10;2.23;;;11.40;99.90;;;;;;4918606;29;20505;-84
2022/02/08 20:24:03;;;;;;;2.73;2.30;;;11.40;99.90;;;;;;4921867;29;20494;-85
2022/02/08 20:29:22;;;;;;;4.27;2.60;;;11.40;99.90;;;;;;4913945;29;20451;-84
2022/02/08 20:31:50;;;;;;;2.57;1.77;;;11.30;99.90;;;;;;4907203;29;20887;-83
2022/02/08 20:34:22;;;;;;;3.73;2.80;;;11.30;99.90;;;;;;4905406;29;20490;-82
2022/02/08 20:36:50;;;;;;;3.43;2.60;;;11.40;99.90;;;;;;4913393;29;20467;-84
2022/02/08 20:39:17;;;;;;;4.77;2.90;;;11.40;99.90;;;;;;4910510;29;20466;-83
2022/02/08 20:41:44;;;;;;;5.07;2.57;;;11.30;99.90;;;;;;4909839;29;20981;-83
2022/02/08 20:44:14;;;;;;;3.10;2.20;;;11.30;99.90;;;;;;4904397;29;21039;-84
2022/02/08 20:46:49;;;;;;;3.40;2.50;;;11.30;99.90;;;;;;4904300;29;20478;-83
2022/02/08 20:49:16;;;;;;;4.60;2.23;;;11.30;99.90;;;;;;4906390;29;21066;-84
2022/02/08 20:51:45;;;;;;;3.23;2.13;;;11.40;99.90;;;;;;4906307;29;20463;-83
2022/02/08 20:54:19;;;;;;;2.10;1.83;;;11.40;99.90;;;;;;4903962;29;20559;-85
2022/02/08 20:57:00;;;;;;;4.53;2.63;;;11.50;99.90;;;;;;4918067;29;20462;-84
2022/02/08 20:59:31;;;;;;;3.43;2.20;;;11.50;99.90;;;;;;4907753;29;20482;-83
2022/02/08 21:02:17;;;;;;;3.83;2.23;;;11.40;99.90;;;;;;4904587;29;20451;-84
2022/02/08 21:05:01;;;;;;;2.43;2.10;;;11.40;99.90;;;;;;4912852;29;20443;-85
2022/02/08 21:07:28;;;;;;;2.93;2.40;;;11.50;99.90;;;;;;4907934;29;20462;-83
2022/02/08 21:09:55;;;;;;;5.50;2.17;;;11.50;99.90;;;;;;4921693;29;20486;-84